Time;durP1;ratioP1;P1;durP2;ratioP2;P2;SDS_P1;SDS_P2;PMS_P1;PMS_P2;Temp;Humidity;BMP_temperature;BMP_pressure;BME280_temperature;BME280_humidity;BME280_pressure;Samples;Min_cycle;Max_cycle;Signal;HPM_P1;HPM_P2
2022/11/17 00:01:44;;;;;;;0.45;0.30;;;;;;;18.49;42.04;100954.13;4734304;30;20118;-88
2022/11/17 00:04:09;;;;;;;0.35;0.35;;;;;;;18.45;42.24;100947.47;4734700;30;20134;-88
2022/11/17 00:06:35;;;;;;;0.32;0.32;;;;;;;18.48;42.13;100946.22;4745918;30;20135;-88
2022/11/17 00:09:01;;;;;;;0.43;0.30;;;;;;;18.48;42.15;100943.50;4734885;30;20545;-88
2022/11/17 00:14:31;;;;;;;0.30;0.30;;;;;;;18.49;42.10;100940.59;4733254;30;20078;-88
2022/11/17 00:16:56;;;;;;;0.75;0.40;;;;;;;18.45;42.22;100933.94;4740584;30;20134;-88
2022/11/17 00:22:06;;;;;;;0.32;0.32;;;;;;;18.46;42.17;100934.81;4751784;30;20415;-88
2022/11/17 00:24:31;;;;;;;0.38;0.38;;;;;;;18.48;41.91;100941.63;4733738;30;20067;-88
2022/11/17 00:27:06;;;;;;;0.28;0.28;;;;;;;18.47;42.22;100931.88;4733170;30;20032;-88
2022/11/17 00:29:32;;;;;;;0.30;0.30;;;;;;;18.48;42.16;100930.78;4747547;30;20043;-88
2022/11/17 00:34:42;;;;;;;0.20;0.20;;;;;;;18.49;42.00;100927.06;4738387;30;20038;-88
2022/11/17 00:37:07;;;;;;;0.30;0.30;;;;;;;18.48;42.22;100921.88;4759372;30;20039;-89
2022/11/17 00:39:33;;;;;;;0.52;0.30;;;;;;;18.48;42.29;100925.38;4735706;30;20036;-88
2022/11/17 00:41:59;;;;;;;0.40;0.40;;;;;;;18.48;42.21;100902.91;4741727;30;20134;-88
2022/11/17 00:44:25;;;;;;;0.35;0.30;;;;;;;18.45;42.29;100901.47;4735110;30;20025;-88
2022/11/17 00:46:50;;;;;;;0.80;0.40;;;;;;;18.46;42.21;100897.72;4731361;30;20031;-88
2022/11/17 00:49:16;;;;;;;0.47;0.45;;;;;;;18.45;42.18;100896.06;4749505;30;20098;-88
2022/11/17 00:51:42;;;;;;;0.40;0.30;;;;;;;18.46;42.24;100895.03;4734343;30;20100;-88
2022/11/17 00:54:10;;;;;;;0.20;0.20;;;;;;;18.45;42.26;100881.72;4732881;30;20230;-88
2022/11/17 00:56:35;;;;;;;0.32;0.30;;;;;;;18.44;42.09;100885.47;4734375;30;20036;-88
2022/11/17 00:59:01;;;;;;;0.43;0.30;;;;;;;18.46;42.19;100884.19;4732996;30;20046;-88
2022/11/17 01:01:27;;;;;;;0.30;0.30;;;;;;;18.48;42.21;100886.69;4743305;30;20059;-88
2022/11/17 01:04:01;;;;;;;0.40;0.40;;;;;;;18.46;42.25;100883.38;4733766;30;20454;-87
2022/11/17 01:06:32;;;;;;;0.30;0.30;;;;;;;18.46;42.23;100884.19;4731906;30;20507;-88
2022/11/17 01:09:03;;;;;;;0.45;0.28;;;;;;;18.47;42.09;100875.03;4735062;30;20063;-88
2022/11/17 01:11:29;;;;;;;0.22;0.22;;;;;;;18.46;42.16;100878.78;4734895;30;20463;-88
2022/11/17 01:13:56;;;;;;;0.38;0.30;;;;;;;18.44;42.32;100880.06;4732967;30;20039;-88
2022/11/17 01:16:21;;;;;;;0.47;0.30;;;;;;;18.48;42.25;100876.66;4733152;30;20028;-88
2022/11/17 01:18:47;;;;;;;0.30;0.30;;;;;;;18.48;42.20;100881.25;4747365;30;20442;-88
2022/11/17 01:21:15;;;;;;;0.20;0.20;;;;;;;18.46;42.32;100878.78;4752314;30;20028;-88
2022/11/17 01:23:41;;;;;;;0.30;0.30;;;;;;;18.36;42.16;100862.25;4767892;30;20403;-88
2022/11/17 01:26:09;;;;;;;0.30;0.20;;;;;;;18.47;42.35;100869.63;4752698;30;20104;-88
2022/11/17 01:28:35;;;;;;;0.40;0.30;;;;;;;18.48;42.07;100879.38;4737234;30;20038;-88
2022/11/17 01:31:05;;;;;;;0.20;0.20;;;;;;;18.46;42.28;100870.66;4735611;30;20399;-88
2022/11/17 01:33:31;;;;;;;0.30;0.30;;;;;;;18.45;42.34;100877.13;4752604;30;20046;-88
2022/11/17 01:36:05;;;;;;;0.35;0.30;;;;;;;18.44;42.09;100870.06;4737767;30;20036;-88
2022/11/17 01:38:30;;;;;;;0.30;0.30;;;;;;;18.47;42.15;100869.63;4736659;30;20501;-88
2022/11/17 01:41:00;;;;;;;0.20;0.20;;;;;;;18.46;42.11;100857.13;4735308;30;20063;-88
2022/11/17 01:43:40;;;;;;;0.30;0.20;;;;;;;18.46;42.16;100862.53;4736598;30;20494;-88
2022/11/17 01:46:16;;;;;;;0.20;0.20;;;;;;;18.47;42.44;100863.38;4721404;30;20047;-88
2022/11/17 01:48:41;;;;;;;0.20;0.20;;;;;;;18.44;42.29;100853.84;4764796;30;20414;-88
2022/11/17 01:51:07;;;;;;;0.22;0.22;;;;;;;18.47;42.30;100853.38;4736365;30;20036;-88
2022/11/17 01:53:34;;;;;;;0.30;0.20;;;;;;;18.46;42.22;100851.72;4735419;30;20498;-88
2022/11/17 01:56:02;;;;;;;0.20;0.20;;;;;;;18.45;41.96;100854.66;4731701;30;20419;-88
2022/11/17 01:58:30;;;;;;;0.30;0.30;;;;;;;18.47;42.23;100853.38;4751740;30;20036;-88
2022/11/17 02:00:56;;;;;;;0.20;0.20;;;;;;;18.47;42.26;100852.53;4737319;30;20036;-88
2022/11/17 02:03:21;;;;;;;0.60;0.30;;;;;;;18.46;42.31;100851.72;4736116;30;20039;-88
2022/11/17 02:06:06;;;;;;;0.50;0.30;;;;;;;18.48;42.21;100855.03;4736102;30;20171;-88
2022/11/17 02:08:38;;;;;;;0.20;0.20;;;;;;;18.45;42.31;100855.47;4751061;30;20032;-88
2022/11/17 02:11:07;;;;;;;0.20;0.20;;;;;;;18.43;42.33;100841.34;4735641;30;20040;-88
2022/11/17 02:13:33;;;;;;;0.25;0.20;;;;;;;18.44;42.26;100848.44;4737161;30;20042;-88
2022/11/17 02:15:58;;;;;;;0.20;0.20;;;;;;;18.48;42.17;100848.78;4737072;30;20044;-88
2022/11/17 02:18:24;;;;;;;0.70;0.40;;;;;;;18.44;42.39;100859.25;4735068;30;20082;-88
2022/11/17 02:20:59;;;;;;;0.20;0.20;;;;;;;18.48;42.07;100855.03;4736075;30;20388;-88
2022/11/17 02:23:49;;;;;;;0.17;0.17;;;;;;;18.48;42.32;100855.03;4759958;30;20031;-88
2022/11/17 02:26:50;;;;;;;0.20;0.20;;;;;;;18.47;42.26;100850.69;4750469;30;20118;-88
2022/11/17 02:29:38;;;;;;;0.30;0.30;;;;;;;18.45;42.23;100855.47;4674270;30;20255;-88
2022/11/17 02:32:06;;;;;;;0.20;0.20;;;;;;;18.46;42.37;100851.72;4761800;30;20072;-88
2022/11/17 02:34:37;;;;;;;0.30;0.30;;;;;;;18.45;42.30;100838.41;4733628;30;20114;-88
2022/11/17 02:37:15;;;;;;;0.25;0.25;;;;;;;18.47;42.29;100837.16;4751631;30;20131;-88
2022/11/17 02:39:59;;;;;;;0.20;0.20;;;;;;;18.49;42.43;100828.78;4750593;30;20032;-88
2022/11/17 02:44:02;;;;;;;0.20;0.20;;;;;;;18.49;42.28;100848.56;4761196;30;20039;-88
2022/11/17 02:45:16;;;;;;;0.20;0.20;;;;;;;18.46;42.42;100846.31;4767041;30;20036;-88
2022/11/17 02:47:42;;;;;;;0.28;0.28;;;;;;;18.47;42.07;100847.13;4749563;30;20096;-88
2022/11/17 02:50:08;;;;;;;0.30;0.20;;;;;;;18.47;42.30;100847.97;4736423;30;20040;-87
2022/11/17 02:52:34;;;;;;;0.30;0.30;;;;;;;18.47;42.23;100845.28;4733263;30;20039;-88
2022/11/17 02:55:06;;;;;;;0.40;0.30;;;;;;;18.49;42.29;100847.72;4734643;30;20036;-88
2022/11/17 02:57:37;;;;;;;0.30;0.30;;;;;;;18.46;42.29;100835.47;4751666;30;20126;-88
2022/11/17 03:00:10;;;;;;;0.20;0.20;;;;;;;18.46;42.26;100834.66;4736214;30;20036;-88
2022/11/17 03:02:43;;;;;;;0.30;0.30;;;;;;;18.48;42.22;100833.38;4735998;30;20523;-88
2022/11/17 03:05:46;;;;;;;0.30;0.25;;;;;;;18.49;42.22;100845.84;4741719;30;20040;-88
2022/11/17 03:08:23;;;;;;;0.20;0.20;;;;;;;18.49;42.23;100845.00;4709797;30;20409;-88
2022/11/17 03:11:01;;;;;;;0.20;0.20;;;;;;;18.49;42.44;100837.75;4739908;30;20053;-88
2022/11/17 03:13:41;;;;;;;0.10;0.10;;;;;;;18.49;42.23;100831.47;4718760;30;20048;-88
2022/11/17 03:16:15;;;;;;;0.20;0.20;;;;;;;18.48;42.35;100827.97;4729749;30;20047;-88
2022/11/17 03:19:06;;;;;;;0.47;0.30;;;;;;;18.50;42.21;100842.06;4742789;30;20033;-88
2022/11/17 03:21:45;;;;;;;0.43;0.30;;;;;;;18.48;42.32;100827.97;4729810;30;20040;-88
2022/11/17 03:24:17;;;;;;;0.28;0.28;;;;;;;18.48;42.18;100840.66;4716310;30;20547;-88
2022/11/17 03:26:46;;;;;;;0.20;0.20;;;;;;;18.48;42.18;100837.97;4719519;30;20040;-88
2022/11/17 03:29:13;;;;;;;0.30;0.20;;;;;;;18.46;42.21;100834.66;4713836;30;20502;-88
2022/11/17 03:31:39;;;;;;;0.82;0.30;;;;;;;18.48;42.24;100838.78;4728005;30;20404;-88
2022/11/17 03:34:06;;;;;;;0.20;0.20;;;;;;;18.48;42.39;100827.13;4718338;30;20115;-88
2022/11/17 03:36:34;;;;;;;0.20;0.20;;;;;;;18.47;42.19;100820.06;4710780;30;20040;-88
2022/11/17 03:39:19;;;;;;;0.30;0.20;;;;;;;18.47;42.18;100810.09;4730305;30;20035;-88
2022/11/17 03:41:46;;;;;;;0.20;0.20;;;;;;;18.46;42.34;100807.59;4707774;30;20102;-88
2022/11/17 03:44:11;;;;;;;0.17;0.17;;;;;;;18.47;42.40;100810.09;4718216;30;20027;-88
2022/11/17 03:46:37;;;;;;;0.30;0.30;;;;;;;18.47;42.26;100803.81;4714260;30;20127;-88
2022/11/17 03:49:24;;;;;;;0.30;0.30;;;;;;;18.44;42.41;100802.41;4718214;30;20032;-88
2022/11/17 03:51:50;;;;;;;0.20;0.20;;;;;;;18.48;42.21;100795.47;4740648;30;20036;-88
2022/11/17 03:54:16;;;;;;;0.20;0.20;;;;;;;18.45;42.47;100801.34;4724711;30;20400;-88
2022/11/17 03:56:44;;;;;;;0.20;0.20;;;;;;;18.48;42.25;100800.91;4726813;30;20039;-88
2022/11/17 03:59:14;;;;;;;0.30;0.30;;;;;;;18.46;42.40;100796.78;4762859;30;20097;-88
2022/11/17 04:01:40;;;;;;;0.40;0.40;;;;;;;18.49;42.44;100801.72;4732330;30;20036;-88
2022/11/17 04:04:06;;;;;;;0.45;0.20;;;;;;;18.47;42.58;100803.81;4725299;30;20043;-88
2022/11/17 04:06:31;;;;;;;0.20;0.20;;;;;;;18.49;42.28;100807.97;4719103;30;20039;-88
2022/11/17 04:08:57;;;;;;;0.38;0.20;;;;;;;18.47;42.26;100804.66;4749808;30;20055;-88
2022/11/17 04:16:51;;;;;;;0.30;0.30;;;;;;;18.47;42.37;100804.66;4739174;30;20047;-88
2022/11/17 04:19:17;;;;;;;0.40;0.32;;;;;;;18.48;42.38;100805.50;4734600;30;20035;-88
2022/11/17 04:21:43;;;;;;;0.30;0.20;;;;;;;18.47;42.31;100798.41;4720320;30;20468;-88
2022/11/17 04:24:08;;;;;;;0.35;0.30;;;;;;;18.46;42.26;100797.59;4719336;30;20043;-88
2022/11/17 04:29:18;;;;;;;1.02;0.20;;;;;;;18.45;42.33;100790.53;4739132;30;20400;-88
2022/11/17 04:31:44;;;;;;;0.20;0.20;;;;;;;18.45;42.25;100793.22;4734912;30;20500;-88
2022/11/17 04:34:09;;;;;;;0.38;0.20;;;;;;;18.47;42.23;100783.03;4734203;30;20444;-88
2022/11/17 04:36:38;;;;;;;0.30;0.30;;;;;;;18.48;42.43;100779.25;4718620;30;20036;-87
2022/11/17 04:39:13;;;;;;;0.32;0.20;;;;;;;18.46;42.44;100781.34;4721057;30;20534;-88
2022/11/17 04:41:56;;;;;;;0.45;0.28;;;;;;;18.47;42.25;100771.34;4734338;30;20071;-88
2022/11/17 04:44:26;;;;;;;0.20;0.20;;;;;;;18.47;42.32;100772.19;4737598;30;20036;-88
2022/11/17 04:46:52;;;;;;;0.60;0.20;;;;;;;18.47;41.83;100766.78;4733433;30;20051;-88
2022/11/17 04:49:18;;;;;;;0.20;0.20;;;;;;;18.46;42.38;100762.41;4749230;30;20034;-88
2022/11/17 04:51:44;;;;;;;0.40;0.20;;;;;;;18.50;42.65;100776.31;4765499;30;20032;-88
2022/11/17 04:54:10;;;;;;;0.40;0.30;;;;;;;18.48;42.24;100770.31;4749117;30;20039;-88
2022/11/17 04:56:36;;;;;;;0.20;0.20;;;;;;;18.44;42.25;100764.53;4769192;30;20039;-87
2022/11/17 04:59:02;;;;;;;0.20;0.20;;;;;;;18.45;42.27;100763.47;4751566;30;20046;-88
2022/11/17 05:01:27;;;;;;;0.20;0.20;;;;;;;18.46;42.30;100761.59;4752741;30;20028;-87
2022/11/17 05:03:54;;;;;;;0.43;0.28;;;;;;;18.49;42.23;100770.09;4753059;30;20456;-88
2022/11/17 05:06:33;;;;;;;0.28;0.20;;;;;;;18.44;42.26;100767.25;4735245;30;20048;-87
2022/11/17 05:09:00;;;;;;;0.30;0.20;;;;;;;18.45;42.36;100760.75;4724976;30;20078;-88
2022/11/17 05:14:12;;;;;;;0.20;0.20;;;;;;;18.47;42.28;100769.50;4742450;30;20453;-87
2022/11/17 05:19:23;;;;;;;;;;;;;;;18.49;42.29;100777.34;4755347;30;20091;-88
2022/11/17 05:21:49;;;;;;;0.22;0.20;;;;;;;18.49;42.49;100772.78;4750086;30;19929;-88
2022/11/17 05:24:15;;;;;;;0.30;0.30;;;;;;;18.49;42.47;100780.06;4735740;30;20032;-87
2022/11/17 05:26:41;;;;;;;0.57;0.20;;;;;;;18.45;42.12;100760.75;4737737;30;20490;-87
2022/11/17 05:29:07;;;;;;;0.20;0.20;;;;;;;18.48;42.20;100773.81;4737192;30;20070;-87
2022/11/17 05:31:33;;;;;;;0.50;0.45;;;;;;;18.45;42.44;100774.28;4737880;30;20085;-87
2022/11/17 05:33:59;;;;;;;1.00;0.90;;;;;;;18.47;42.30;100771.34;4737886;30;20036;-88
2022/11/17 05:36:25;;;;;;;1.48;1.00;;;;;;;18.47;42.32;100776.75;4735743;30;20657;-88
2022/11/17 05:38:51;;;;;;;1.15;1.00;;;;;;;18.51;42.31;100789.63;4752755;30;20515;-88
2022/11/17 05:41:17;;;;;;;1.10;1.00;;;;;;;18.49;42.23;100785.47;4734571;30;20123;-87
2022/11/17 05:43:43;;;;;;;1.20;1.00;;;;;;;18.50;42.33;100787.13;4736635;30;20123;-88
2022/11/17 05:46:09;;;;;;;1.77;1.20;;;;;;;18.49;42.35;100780.06;4735234;30;20063;-88
2022/11/17 05:48:35;;;;;;;1.38;1.20;;;;;;;18.49;42.16;100780.06;4735494;30;20134;-87
2022/11/17 05:51:00;;;;;;;1.73;1.20;;;;;;;18.51;42.21;100786.91;4722340;30;20036;-87
2022/11/17 05:53:27;;;;;;;1.17;0.88;;;;;;;18.48;42.27;100770.31;4736017;30;20047;-88
2022/11/17 05:56:27;;;;;;;1.30;1.10;;;;;;;18.50;42.25;100793.38;4738342;30;20658;-88
2022/11/17 05:58:55;;;;;;;1.75;1.23;;;;;;;18.49;42.24;100791.72;4767771;30;20031;-87
2022/11/17 06:01:21;;;;;;;1.50;1.15;;;;;;;18.52;42.17;100791.28;4736116;30;20043;-87
2022/11/17 06:03:51;;;;;;;1.30;1.20;;;;;;;18.51;42.09;100799.63;4737517;30;20138;-87
2022/11/17 06:06:17;;;;;;;1.52;1.10;;;;;;;18.51;41.98;100796.91;4737404;30;20039;-87
2022/11/17 06:08:42;;;;;;;1.00;0.90;;;;;;;18.52;42.13;100793.13;4738002;30;20096;-87
2022/11/17 06:11:08;;;;;;;1.05;0.85;;;;;;;18.48;42.18;100781.94;4736775;30;20066;-87
2022/11/17 06:13:34;;;;;;;1.10;1.00;;;;;;;18.51;42.31;100802.31;4737597;30;20092;-88
2022/11/17 06:16:01;;;;;;;1.15;1.05;;;;;;;18.49;42.17;100790.88;4737511;30;20059;-88
2022/11/17 06:18:29;;;;;;;1.15;1.02;;;;;;;18.48;42.14;100794.66;4736155;30;20528;-88
2022/11/17 06:20:58;;;;;;;1.33;1.08;;;;;;;18.51;42.12;100797.72;4736981;30;20076;-87
2022/11/17 06:23:25;;;;;;;0.80;0.70;;;;;;;18.47;42.13;100793.84;4735928;30;20131;-87
2022/11/17 06:25:51;;;;;;;1.02;0.90;;;;;;;18.51;42.13;100786.91;4752135;30;20419;-88
2022/11/17 06:28:17;;;;;;;1.30;1.00;;;;;;;18.49;42.13;100786.31;4722317;30;20063;-87
2022/11/17 06:30:43;;;;;;;0.85;0.80;;;;;;;18.52;41.95;100791.28;4722796;30;20492;-88
2022/11/17 06:33:11;;;;;;;1.13;0.88;;;;;;;18.50;42.11;100785.25;4751611;30;20194;-87
2022/11/17 06:35:36;;;;;;;0.80;0.80;;;;;;;18.50;42.14;100777.13;4736271;30;20507;-87
2022/11/17 06:38:02;;;;;;;1.42;0.88;;;;;;;18.52;42.11;100791.28;4736766;30;20044;-88
2022/11/17 06:40:28;;;;;;;1.27;0.88;;;;;;;18.51;42.05;100783.38;4735989;30;20339;-87
2022/11/17 06:43:06;;;;;;;1.00;0.88;;;;;;;18.50;41.94;100787.13;4736688;30;20078;-87
2022/11/17 06:45:36;;;;;;;0.80;0.80;;;;;;;18.51;42.22;100781.50;4768383;30;20706;-87
2022/11/17 06:48:02;;;;;;;1.42;1.10;;;;;;;18.50;42.18;100785.25;4721817;30;20561;-88
2022/11/17 06:50:27;;;;;;;1.08;0.90;;;;;;;18.49;42.05;100780.91;4736326;30;20032;-88
2022/11/17 06:52:57;;;;;;;0.93;0.90;;;;;;;18.49;42.13;100783.59;4748910;30;20361;-87
2022/11/17 06:55:23;;;;;;;1.00;0.90;;;;;;;18.49;42.13;100788.19;4736657;30;20038;-87
2022/11/17 06:57:50;;;;;;;1.10;0.85;;;;;;;18.45;42.31;100787.81;4751871;30;20056;-88
2022/11/17 07:00:16;;;;;;;0.98;0.88;;;;;;;18.46;42.19;100784.06;4736089;30;20401;-88
2022/11/17 07:02:42;;;;;;;0.80;0.80;;;;;;;18.49;42.13;100797.16;4736356;30;20050;-88
2022/11/17 07:05:08;;;;;;;0.77;0.77;;;;;;;18.51;42.16;100791.50;4735890;30;20047;-87
2022/11/17 07:07:33;;;;;;;0.70;0.70;;;;;;;18.49;42.20;100783.59;4736017;30;20047;-88
2022/11/17 07:09:59;;;;;;;1.00;0.68;;;;;;;18.48;42.15;100786.53;4751318;30;20040;-88
2022/11/17 07:12:25;;;;;;;0.85;0.82;;;;;;;18.47;42.30;100783.03;4735281;30;20096;-87
2022/11/17 07:14:50;;;;;;;1.48;1.00;;;;;;;18.53;42.19;100800.22;4767194;30;20056;-87
2022/11/17 07:17:16;;;;;;;0.90;0.90;;;;;;;18.50;42.22;100798.78;4733879;30;20135;-88
2022/11/17 07:19:41;;;;;;;0.80;0.80;;;;;;;18.49;42.19;100797.16;4736662;30;20031;-87
2022/11/17 07:22:07;;;;;;;0.95;0.85;;;;;;;18.49;42.22;100807.13;4720119;30;20028;-87
2022/11/17 07:24:33;;;;;;;0.82;0.80;;;;;;;18.50;42.20;100803.38;4735141;30;20043;-88
2022/11/17 07:26:59;;;;;;;0.77;0.77;;;;;;;18.50;42.18;100798.78;4734703;30;20040;-88
2022/11/17 07:29:24;;;;;;;1.50;0.90;;;;;;;18.49;42.27;100797.16;4733176;30;20128;-88
2022/11/17 07:31:50;;;;;;;1.02;0.85;;;;;;;18.50;42.01;100790.66;4750840;30;20051;-88
2022/11/17 07:34:16;;;;;;;1.15;0.77;;;;;;;18.53;42.10;100795.63;4734160;30;20119;-87
2022/11/17 07:36:41;;;;;;;0.95;0.85;;;;;;;18.51;42.05;100795.03;4735339;30;20492;-88
2022/11/17 07:39:07;;;;;;;1.15;1.00;;;;;;;18.48;42.36;100779.25;4734371;30;20032;-88
2022/11/17 07:41:32;;;;;;;1.77;1.15;;;;;;;18.49;42.20;100778.19;4735012;30;20085;-88
2022/11/17 07:43:58;;;;;;;1.08;0.98;;;;;;;18.53;42.16;100783.97;4749516;30;20089;-87
2022/11/17 07:46:24;;;;;;;1.08;0.80;;;;;;;18.51;42.23;100784.19;4732985;30;20499;-87
2022/11/17 07:48:52;;;;;;;1.17;1.08;;;;;;;18.52;42.21;100785.88;4719565;30;20534;-87
2022/11/17 07:51:17;;;;;;;1.38;1.00;;;;;;;18.51;42.13;100783.38;4735359;30;20396;-87
2022/11/17 07:53:43;;;;;;;1.05;0.98;;;;;;;18.51;42.22;100784.19;4735551;30;20064;-87
2022/11/17 07:56:09;;;;;;;1.10;1.00;;;;;;;18.50;42.17;100776.31;4735669;30;20129;-88
2022/11/17 07:58:35;;;;;;;1.27;1.08;;;;;;;18.51;42.31;100781.50;4750301;30;20048;-88
2022/11/17 08:01:15;;;;;;;1.00;0.90;;;;;;;18.53;42.13;100783.97;4735644;30;20032;-87
2022/11/17 08:03:41;;;;;;;1.30;1.10;;;;;;;18.53;42.33;100775.84;4734110;30;20388;-88
2022/11/17 08:06:08;;;;;;;1.30;1.00;;;;;;;18.52;42.13;100780.44;4716465;30;20032;-88
2022/11/17 08:08:35;;;;;;;1.10;0.95;;;;;;;18.51;42.25;100777.97;4718302;30;20058;-88
2022/11/17 08:11:07;;;;;;;1.00;0.95;;;;;;;18.46;42.21;100769.72;4732154;30;20039;-88
2022/11/17 08:13:34;;;;;;;1.13;0.95;;;;;;;18.48;42.12;100773.81;4718295;30;20127;-87
2022/11/17 08:15:59;;;;;;;1.00;0.90;;;;;;;18.55;42.15;100781.84;4718143;30;20511;-88
2022/11/17 08:18:25;;;;;;;1.27;1.00;;;;;;;18.49;42.16;100770.09;4717507;30;20036;-88
2022/11/17 08:20:51;;;;;;;1.38;1.05;;;;;;;18.55;42.21;100774.56;4717981;30;20098;-88
2022/11/17 08:23:17;;;;;;;1.58;1.10;;;;;;;18.50;42.29;100760.06;4717313;30;20028;-88
2022/11/17 08:25:42;;;;;;;1.08;0.98;;;;;;;18.55;42.09;100762.91;4718161;30;20036;-88
2022/11/17 08:28:08;;;;;;;1.00;0.90;;;;;;;18.53;42.20;100765.03;4748949;30;20064;-88
2022/11/17 08:30:34;;;;;;;1.10;0.98;;;;;;;18.53;42.17;100776.66;4731529;30;20412;-87
2022/11/17 08:33:00;;;;;;;1.48;1.33;;;;;;;18.49;42.29;100767.38;4748578;30;20040;-87
2022/11/17 08:35:26;;;;;;;1.38;1.27;;;;;;;18.53;42.34;100775.84;4716508;30;20382;-88
2022/11/17 08:37:51;;;;;;;1.00;0.90;;;;;;;18.53;42.21;100770.44;4732454;30;20055;-88
2022/11/17 08:40:17;;;;;;;1.17;0.90;;;;;;;18.53;42.27;100776.66;4748025;30;20032;-88
2022/11/17 08:42:43;;;;;;;1.20;1.10;;;;;;;18.52;42.21;100769.63;4716382;30;20036;-88
2022/11/17 08:45:09;;;;;;;0.80;0.80;;;;;;;18.50;42.30;100774.41;4702951;30;20451;-87
2022/11/17 08:47:35;;;;;;;0.80;0.80;;;;;;;18.53;42.25;100775.84;4747872;30;20038;-87
2022/11/17 08:50:01;;;;;;;0.90;0.80;;;;;;;18.52;42.18;100775.03;4717892;30;20067;-87
2022/11/17 08:52:27;;;;;;;1.00;0.90;;;;;;;18.50;42.24;100781.72;4748093;30;20627;-87
2022/11/17 08:54:52;;;;;;;1.08;0.95;;;;;;;18.53;42.07;100792.91;4717381;30;20036;-88
2022/11/17 08:57:20;;;;;;;1.10;1.00;;;;;;;18.51;42.26;100784.19;4748127;30;20047;-88
2022/11/17 08:59:46;;;;;;;0.75;0.75;;;;;;;18.50;42.20;100782.53;4716914;30;20043;-88
2022/11/17 09:02:12;;;;;;;1.05;0.95;;;;;;;18.57;42.17;100788.69;4732132;30;20380;-87
2022/11/17 09:04:38;;;;;;;0.95;0.90;;;;;;;18.56;42.02;100792.44;4732059;30;20135;-88
2022/11/17 09:07:03;;;;;;;1.17;1.00;;;;;;;18.55;42.05;100790.78;4717005;30;20041;-87
2022/11/17 09:09:32;;;;;;;1.10;1.00;;;;;;;18.54;41.81;100789.16;4703005;30;20036;-88
2022/11/17 09:11:58;;;;;;;1.00;0.90;;;;;;;18.55;42.17;100782.66;4700573;30;20036;-88
2022/11/17 09:14:24;;;;;;;0.90;0.90;;;;;;;18.53;41.98;100792.91;4719682;30;20035;-88
2022/11/17 09:16:50;;;;;;;1.30;1.10;;;;;;;18.54;41.91;100801.84;4725922;30;20040;-88
2022/11/17 09:19:16;;;;;;;1.00;0.90;;;;;;;18.53;41.82;100790.19;4730396;30;20134;-87
2022/11/17 09:21:41;;;;;;;1.20;1.10;;;;;;;18.54;41.58;100793.72;4717278;30;20042;-88
2022/11/17 09:24:07;;;;;;;0.98;0.90;;;;;;;18.55;41.74;100796.19;4727785;30;20127;-88
2022/11/17 09:26:33;;;;;;;0.80;0.80;;;;;;;18.55;41.67;100796.19;4717485;30;20048;-87
2022/11/17 09:29:03;;;;;;;1.08;0.95;;;;;;;18.54;41.72;100802.69;4732009;30;20123;-88
2022/11/17 09:31:29;;;;;;;1.00;0.90;;;;;;;18.55;41.73;100796.19;4702479;30;20036;-88
2022/11/17 09:33:54;;;;;;;0.88;0.88;;;;;;;18.53;41.60;100790.19;4716066;30;20035;-87
2022/11/17 09:36:20;;;;;;;1.35;0.90;;;;;;;18.57;41.71;100788.69;4726201;30;20044;-88
2022/11/17 09:38:46;;;;;;;1.77;1.10;;;;;;;18.57;41.59;100793.28;4716012;30;20082;-88
2022/11/17 09:41:14;;;;;;;1.02;0.95;;;;;;;18.58;41.72;100794.94;4732576;30;20067;-87
2022/11/17 09:43:49;;;;;;;1.10;1.00;;;;;;;18.56;41.64;100792.44;4750473;30;20036;-88
2022/11/17 09:46:21;;;;;;;0.98;0.80;;;;;;;18.56;41.52;100791.63;4720429;30;20039;-87
2022/11/17 09:48:50;;;;;;;1.10;1.00;;;;;;;18.54;41.37;100791.88;4719754;30;20071;-87
2022/11/17 09:51:17;;;;;;;0.88;0.85;;;;;;;18.55;41.64;100790.78;4719376;30;20484;-87
2022/11/17 09:53:53;;;;;;;1.20;1.08;;;;;;;18.55;41.42;100796.19;4719578;30;20024;-88
2022/11/17 09:56:18;;;;;;;1.05;0.93;;;;;;;18.55;41.59;100795.38;4708311;30;20043;-88
2022/11/17 09:58:45;;;;;;;0.80;0.80;;;;;;;18.58;41.64;100801.16;4720256;30;20030;-88
2022/11/17 10:01:12;;;;;;;1.73;1.20;;;;;;;18.56;41.65;100792.44;4718963;30;20038;-87
2022/11/17 10:03:39;;;;;;;1.20;1.10;;;;;;;18.56;41.54;100795.16;4705506;30;20102;-87
2022/11/17 10:06:08;;;;;;;1.30;1.17;;;;;;;18.57;41.45;100804.94;4717919;30;20040;-88
2022/11/17 10:08:41;;;;;;;1.23;1.00;;;;;;;18.59;41.52;100801.97;4720534;30;20098;-88
2022/11/17 10:11:32;;;;;;;1.48;1.23;;;;;;;18.57;41.75;100814.91;4734410;30;20052;-87
2022/11/17 10:14:11;;;;;;;1.10;1.00;;;;;;;18.55;41.56;100812.44;4724084;30;20050;-88
2022/11/17 10:16:38;;;;;;;1.13;1.02;;;;;;;18.54;41.77;100809.97;4736310;30;20116;-87
2022/11/17 10:19:14;;;;;;;0.80;0.80;;;;;;;18.57;41.57;100810.34;4734040;30;20544;-88
2022/11/17 10:21:42;;;;;;;1.33;1.08;;;;;;;18.52;41.67;100801.25;4750871;30;20377;-88
2022/11/17 10:24:08;;;;;;;1.33;1.10;;;;;;;18.51;41.74;100811.25;4750838;30;20074;-88
2022/11/17 10:26:47;;;;;;;1.20;1.10;;;;;;;18.54;41.43;100813.50;4734535;30;20428;-88
2022/11/17 10:29:13;;;;;;;1.48;0.90;;;;;;;18.58;41.79;100833.66;4719873;30;20028;-88
2022/11/17 10:31:41;;;;;;;1.02;0.90;;;;;;;18.54;41.63;100812.66;4750116;30;20119;-88
2022/11/17 10:34:08;;;;;;;1.40;1.30;;;;;;;18.61;41.58;100820.69;4719735;30;20032;-88
2022/11/17 10:36:34;;;;;;;1.58;1.02;;;;;;;18.56;41.66;100814.09;4733850;30;20043;-88
2022/11/17 10:39:00;;;;;;;1.10;1.00;;;;;;;18.54;41.53;100823.50;4750215;30;20426;-87
2022/11/17 10:41:37;;;;;;;1.20;1.05;;;;;;;18.60;41.67;100830.72;4733688;30;20056;-88
2022/11/17 10:44:23;;;;;;;1.10;1.00;;;;;;;18.61;41.62;100820.69;4748985;30;20098;-88
2022/11/17 10:46:53;;;;;;;1.15;0.90;;;;;;;18.58;41.69;100828.22;4749960;30;20381;-88
2022/11/17 10:49:36;;;;;;;1.20;1.10;;;;;;;18.51;41.68;100822.09;4750029;30;20039;-88
2022/11/17 10:52:15;;;;;;;1.35;0.90;;;;;;;18.54;41.55;100826.19;4749767;30;20032;-88
2022/11/17 10:54:41;;;;;;;0.88;0.88;;;;;;;18.50;41.86;100828.53;4749417;30;20123;-88
2022/11/17 10:57:09;;;;;;;1.38;1.10;;;;;;;18.55;41.73;100817.84;4733186;30;20028;-88
2022/11/17 10:59:59;;;;;;;1.10;1.00;;;;;;;18.52;41.67;100826.47;4749475;30;20557;-88
2022/11/17 11:02:35;;;;;;;0.80;0.80;;;;;;;18.58;41.75;100827.41;4705368;30;20277;-88
2022/11/17 11:05:13;;;;;;;1.13;1.02;;;;;;;18.56;41.71;100818.69;4719454;30;20669;-88
2022/11/17 11:07:39;;;;;;;0.93;0.90;;;;;;;18.56;41.78;100830.34;4733118;30;20500;-88
2022/11/17 11:10:05;;;;;;;0.90;0.90;;;;;;;18.62;41.69;100825.06;4733505;30;20032;-88
2022/11/17 11:12:45;;;;;;;1.52;1.00;;;;;;;18.54;41.74;100816.22;4748953;30;20040;-88
2022/11/17 11:15:31;;;;;;;0.85;0.85;;;;;;;18.60;41.66;100824.47;4733443;30;20577;-88
2022/11/17 11:17:57;;;;;;;0.93;0.82;;;;;;;18.56;41.71;100816.81;4718774;30;20484;-88
2022/11/17 11:20:46;;;;;;;1.23;1.13;;;;;;;18.63;41.70;100824.03;4719177;30;20036;-88
2022/11/17 11:23:17;;;;;;;1.10;0.80;;;;;;;18.61;41.85;100826.97;4732036;30;20627;-88
2022/11/17 11:25:45;;;;;;;1.55;0.90;;;;;;;18.60;41.71;100824.47;4718236;30;20024;-88
2022/11/17 11:28:38;;;;;;;0.93;0.93;;;;;;;18.62;41.70;100825.06;4733398;30;20039;-88
2022/11/17 11:31:22;;;;;;;1.23;1.10;;;;;;;18.61;41.93;100818.00;4748376;30;20043;-88
2022/11/17 11:33:52;;;;;;;1.95;1.10;;;;;;;18.57;41.77;100810.34;4748858;30;20302;-88
2022/11/17 11:36:23;;;;;;;0.98;0.90;;;;;;;18.60;41.86;100808.25;4703630;30;20067;-88
2022/11/17 11:39:16;;;;;;;1.40;0.98;;;;;;;18.63;41.78;100807.78;4734601;30;20396;-88
2022/11/17 11:42:04;;;;;;;0.90;0.88;;;;;;;18.63;41.70;100805.06;4731635;30;20118;-88
2022/11/17 11:44:41;;;;;;;0.88;0.80;;;;;;;18.61;41.77;100808.00;4732928;30;20968;-88
2022/11/17 11:47:39;;;;;;;1.15;0.88;;;;;;;18.62;41.74;100814.25;4732860;30;20039;-88
2022/11/17 11:50:26;;;;;;;1.38;0.90;;;;;;;18.61;41.67;100804.47;4733200;30;20028;-88
2022/11/17 11:52:58;;;;;;;1.40;0.80;;;;;;;18.63;41.89;100815.91;4718261;30;20036;-88
2022/11/17 11:55:42;;;;;;;1.10;0.80;;;;;;;18.62;41.81;100817.75;4717901;30;20466;-88
2022/11/17 11:58:22;;;;;;;1.77;0.70;;;;;;;18.56;41.79;100811.41;4719461;30;20036;-89